createdAt,value
2019-05-17T00:00:52.895Z,68.16
2019-05-17T00:01:57.945Z,68.20
2019-05-17T00:03:03.567Z,68.21
2019-05-17T00:04:08.564Z,68.22
2019-05-17T00:05:14.214Z,68.23
2019-05-17T00:06:19.225Z,68.24
2019-05-17T00:07:27.139Z,68.22
2019-05-17T00:08:34.723Z,68.21
2019-05-17T00:09:38.966Z,68.18
2019-05-17T00:10:46.398Z,68.13
2019-05-17T00:11:51.165Z,68.12
2019-05-17T00:12:56.478Z,68.14
2019-05-17T00:14:01.883Z,68.17
2019-05-17T00:15:07.830Z,68.21
2019-05-17T00:16:13.493Z,68.19
2019-05-17T00:17:18.534Z,68.26
2019-05-17T00:18:26.321Z,68.28
2019-05-17T00:19:30.735Z,68.29
2019-05-17T00:20:37.412Z,68.28
2019-05-17T00:21:42.680Z,68.29
2019-05-17T00:22:48.174Z,68.33
2019-05-17T00:23:53.365Z,68.31
2019-05-17T00:24:58.892Z,68.31
2019-05-17T00:26:03.985Z,68.31
2019-05-17T00:27:09.473Z,68.33
2019-05-17T00:28:16.368Z,68.34
2019-05-17T00:29:23.470Z,68.31
2019-05-17T00:30:28.445Z,68.32
2019-05-17T00:31:33.991Z,68.32
2019-05-17T00:32:39.333Z,68.30
2019-05-17T00:33:47.055Z,68.27
2019-05-17T00:34:51.511Z,68.25
2019-05-17T00:35:57.257Z,68.25
2019-05-17T00:37:02.228Z,68.27
2019-05-17T00:38:07.829Z,68.30
2019-05-17T00:39:12.821Z,68.29
2019-05-17T00:40:18.541Z,68.33
2019-05-17T00:41:23.496Z,68.31
2019-05-17T00:42:29.053Z,68.27
2019-05-17T00:43:34.052Z,68.27
2019-05-17T00:44:39.781Z,68.29
2019-05-17T00:45:46.689Z,68.33
2019-05-17T00:46:52.397Z,68.39
2019-05-17T00:47:57.385Z,68.41
2019-05-17T00:49:03.209Z,68.43
2019-05-17T00:50:10.881Z,68.42
2019-05-17T00:51:16.815Z,68.50
2019-05-17T00:52:21.880Z,68.48
2019-05-17T00:53:27.348Z,68.51
2019-05-17T00:54:32.273Z,68.52
2019-05-17T00:55:38.086Z,68.54
2019-05-17T00:56:43.086Z,68.58
2019-05-17T00:57:48.665Z,68.57
2019-05-17T00:58:53.951Z,68.58
2019-05-17T00:59:59.493Z,68.61
2019-05-17T01:01:07.526Z,68.63
2019-05-17T01:02:11.864Z,68.63
2019-05-17T01:03:16.849Z,68.67
2019-05-17T01:04:22.705Z,68.65
2019-05-17T01:05:27.700Z,68.61
2019-05-17T01:06:33.254Z,68.56
2019-05-17T01:07:38.200Z,68.60
2019-05-17T01:08:43.763Z,68.65
2019-05-17T01:09:48.990Z,68.70
2019-05-17T01:10:56.486Z,68.70
2019-05-17T01:12:01.420Z,68.69
2019-05-17T01:13:07.155Z,68.67
2019-05-17T01:14:12.094Z,68.63
2019-05-17T01:15:18.356Z,68.64
2019-05-17T01:16:23.281Z,68.65
2019-05-17T01:17:28.936Z,68.69
2019-05-17T01:18:36.145Z,68.66
2019-05-17T01:19:41.258Z,68.66
2019-05-17T01:20:47.444Z,68.66
2019-05-17T01:21:53.137Z,68.69
2019-05-17T01:22:58.433Z,68.68
2019-05-17T01:24:04.061Z,68.68
2019-05-17T01:25:09.427Z,68.69
2019-05-17T01:26:15.221Z,68.67
2019-05-17T01:27:20.171Z,68.66
2019-05-17T01:28:26.918Z,68.65
2019-05-17T01:29:31.958Z,68.62
2019-05-17T01:30:37.765Z,68.63
2019-05-17T01:31:42.666Z,68.61
2019-05-17T01:32:48.458Z,68.63
2019-05-17T01:33:56.430Z,68.66
2019-05-17T01:35:07.008Z,68.69
2019-05-17T01:36:11.379Z,68.68
2019-05-17T01:37:17.373Z,68.66
2019-05-17T01:38:22.353Z,68.68
2019-05-17T01:39:27.841Z,68.71
2019-05-17T01:40:32.783Z,68.73
2019-05-17T01:41:38.342Z,68.74
2019-05-17T01:42:43.261Z,68.74
2019-05-17T01:43:49.106Z,68.72
2019-05-17T01:44:54.025Z,68.72
2019-05-17T01:45:59.572Z,68.67
2019-05-17T01:47:04.586Z,68.63
2019-05-17T01:48:10.236Z,68.61
2019-05-17T01:49:16.501Z,68.61
2019-05-17T01:50:22.104Z,68.56
2019-05-17T01:51:27.117Z,68.58
2019-05-17T01:52:32.613Z,68.57
2019-05-17T01:53:37.554Z,68.54
2019-05-17T01:54:43.406Z,68.53
2019-05-17T01:55:48.323Z,68.55
2019-05-17T01:56:56.531Z,68.55
2019-05-17T01:58:01.381Z,68.60
2019-05-17T02:01:11.031Z,68.59
2019-05-17T02:02:19.094Z,68.45
2019-05-17T02:03:26.627Z,68.50
2019-05-17T02:04:31.721Z,68.56
2019-05-17T02:05:37.462Z,68.60
2019-05-17T02:06:43.059Z,68.61
2019-05-17T02:07:48.139Z,68.65
2019-05-17T02:08:53.657Z,68.67
2019-05-17T02:09:58.716Z,68.67
2019-05-17T02:11:06.648Z,68.69
2019-05-17T02:12:11.239Z,68.70
2019-05-17T02:13:16.827Z,68.68
2019-05-17T02:14:22.169Z,68.69
2019-05-17T02:15:28.065Z,68.68
2019-05-17T02:16:33.206Z,68.72
2019-05-17T02:17:39.189Z,68.75
2019-05-17T02:18:46.472Z,68.73
2019-05-17T02:19:51.725Z,68.73
2019-05-17T02:20:57.150Z,68.76
2019-05-17T02:22:04.165Z,68.77
2019-05-17T02:23:09.114Z,68.80
2019-05-17T02:24:16.790Z,68.77
2019-05-17T02:25:22.142Z,68.75
2019-05-17T02:26:27.731Z,68.75
2019-05-17T02:27:38.237Z,68.79
2019-05-17T02:28:41.453Z,68.80
2019-05-17T02:29:46.576Z,68.77
2019-05-17T02:30:52.997Z,68.79
2019-05-17T02:31:58.568Z,68.79
2019-05-17T02:33:04.828Z,68.82
2019-05-17T02:34:09.866Z,68.82
2019-05-17T02:35:15.959Z,68.83
2019-05-17T02:36:22.839Z,68.85
2019-05-17T02:37:28.190Z,68.86
2019-05-17T02:38:33.647Z,68.85
2019-05-17T02:39:57.132Z,68.83
2019-05-17T02:40:46.748Z,68.81
2019-05-17T02:41:53.359Z,68.82
2019-05-17T02:42:58.576Z,68.84
2019-05-17T02:44:04.321Z,68.76
2019-05-17T02:45:12.984Z,68.79
2019-05-17T02:46:17.453Z,68.78
2019-05-17T02:47:23.165Z,68.83
2019-05-17T02:48:28.815Z,68.84
2019-05-17T02:49:33.815Z,68.87
2019-05-17T02:50:39.501Z,68.88
2019-05-17T02:51:44.891Z,68.87
2019-05-17T02:52:52.825Z,68.89
2019-05-17T02:53:57.475Z,68.89
2019-05-17T02:55:03.966Z,68.91
2019-05-17T02:56:13.049Z,68.90
2019-05-17T02:57:17.251Z,68.91
2019-05-17T02:58:23.281Z,68.92
2019-05-17T02:59:29.277Z,68.94
2019-05-17T03:00:35.171Z,68.94
2019-05-17T03:01:44.311Z,68.94
2019-05-17T03:02:47.809Z,68.94
2019-05-17T03:03:53.315Z,68.95
2019-05-17T03:04:58.354Z,68.93
2019-05-17T03:06:04.275Z,68.96
2019-05-17T03:07:09.283Z,68.96
2019-05-17T03:08:14.787Z,68.99
2019-05-17T03:09:22.664Z,69.02
2019-05-17T03:10:28.935Z,68.99
2019-05-17T03:11:34.213Z,68.93
2019-05-17T03:12:39.710Z,68.93
2019-05-17T03:13:45.717Z,68.96
2019-05-17T03:14:52.862Z,68.93
2019-05-17T03:15:58.487Z,68.92
2019-05-17T03:17:04.060Z,68.88
2019-05-17T03:18:13.198Z,68.86
2019-05-17T03:19:17.272Z,68.85
2019-05-17T03:20:23.207Z,68.88
2019-05-17T03:21:29.039Z,68.83
2019-05-17T03:22:34.279Z,68.78
2019-05-17T03:23:43.239Z,68.77
2019-05-17T03:24:46.449Z,68.80
2019-05-17T03:25:52.686Z,68.80
2019-05-17T03:26:57.876Z,68.80
2019-05-17T03:28:03.802Z,68.79
2019-05-17T03:29:09.586Z,68.79
2019-05-17T03:30:18.292Z,68.76
2019-05-17T03:31:26.188Z,68.74
2019-05-17T03:32:36.020Z,68.73
2019-05-17T03:33:38.904Z,68.72
2019-05-17T03:34:55.278Z,68.74
2019-05-17T03:35:57.351Z,68.74
2019-05-17T03:37:06.512Z,68.70
2019-05-17T03:38:13.886Z,68.73
2019-05-17T03:39:18.516Z,68.75
2019-05-17T03:40:47.451Z,68.78
2019-05-17T03:41:33.756Z,68.78
2019-05-17T03:42:37.679Z,68.75
2019-05-17T03:43:44.356Z,68.76
2019-05-17T03:44:52.896Z,68.76
2019-05-17T03:45:57.200Z,68.75
2019-05-17T03:47:02.526Z,68.71
2019-05-17T03:48:08.167Z,68.69
2019-05-17T03:49:13.326Z,68.64
2019-05-17T03:50:22.486Z,68.65
2019-05-17T03:51:26.348Z,68.65
2019-05-17T03:52:33.300Z,68.64
2019-05-17T03:53:38.589Z,68.67
2019-05-17T03:54:44.376Z,68.68
2019-05-17T03:55:49.406Z,68.71
2019-05-17T03:56:54.998Z,68.73
2019-05-17T03:58:03.049Z,68.74
2019-05-17T03:59:07.471Z,68.75
2019-05-17T04:00:13.594Z,68.76
2019-05-17T04:01:19.234Z,68.74
2019-05-17T04:02:24.667Z,68.77
2019-05-17T04:03:35.059Z,68.76
2019-05-17T04:04:37.335Z,68.77
2019-05-17T04:05:43.351Z,68.75
2019-05-17T04:06:48.653Z,68.78
2019-05-17T04:07:54.420Z,68.79
2019-05-17T04:08:59.354Z,68.81
2019-05-17T04:10:05.836Z,68.79
2019-05-17T04:11:22.130Z,68.77
2019-05-17T04:12:18.629Z,68.78
2019-05-17T04:13:23.871Z,68.79
2019-05-17T04:14:33.335Z,68.76
2019-05-17T04:15:37.048Z,68.79
2019-05-17T04:16:43.106Z,68.78
2019-05-17T04:17:48.429Z,68.79
2019-05-17T04:18:54.000Z,68.76
2019-05-17T04:20:02.959Z,68.73
2019-05-17T04:21:06.289Z,68.73
2019-05-17T04:22:13.774Z,68.74
2019-05-17T04:23:18.662Z,68.74
2019-05-17T04:24:23.634Z,68.70
2019-05-17T04:25:29.122Z,68.70
2019-05-17T04:26:34.431Z,68.69
2019-05-17T04:27:43.532Z,68.65
2019-05-17T04:28:47.370Z,68.66
2019-05-17T04:29:53.429Z,68.66
2019-05-17T04:30:58.604Z,68.60
2019-05-17T04:32:04.489Z,68.57
2019-05-17T04:33:12.788Z,68.53
2019-05-17T04:34:16.924Z,68.46
2019-05-17T04:35:23.209Z,68.40
2019-05-17T04:36:32.176Z,68.40
2019-05-17T04:37:38.545Z,68.38
2019-05-17T04:38:43.836Z,68.32
2019-05-17T04:39:52.260Z,68.28
2019-05-17T04:40:56.223Z,68.21
2019-05-17T04:42:03.691Z,68.18
2019-05-17T04:43:09.471Z,68.18
2019-05-17T04:44:14.703Z,68.16
2019-05-17T04:45:23.066Z,68.15
2019-05-17T04:46:27.651Z,68.12
2019-05-17T04:47:33.943Z,68.11
2019-05-17T04:48:38.881Z,68.13
2019-05-17T04:49:45.949Z,68.15
2019-05-17T04:50:53.723Z,68.17
2019-05-17T04:51:59.465Z,68.20
2019-05-17T04:53:05.253Z,68.17
2019-05-17T04:54:13.723Z,68.14
2019-05-17T04:55:17.700Z,68.12
2019-05-17T04:56:23.259Z,68.06
2019-05-17T04:57:28.477Z,68.01
2019-05-17T04:58:34.127Z,67.92
2019-05-17T04:59:39.212Z,67.86
2019-05-17T05:00:45.454Z,67.82
2019-05-17T05:01:53.517Z,67.79
2019-05-17T05:02:57.708Z,67.74
2019-05-17T05:04:03.823Z,67.72
2019-05-17T05:06:08.028Z,67.67
2019-05-17T05:07:13.995Z,67.62
2019-05-17T05:08:22.219Z,67.65
2019-05-17T05:09:26.342Z,67.65
2019-05-17T05:10:33.864Z,67.63
2019-05-17T05:11:52.105Z,67.60
2019-05-17T05:12:46.226Z,67.60
2019-05-17T05:13:53.137Z,67.54
2019-05-17T05:14:58.250Z,67.46
2019-05-17T05:16:03.768Z,67.42
2019-05-17T05:17:08.694Z,67.41
2019-05-17T05:18:14.722Z,67.45
2019-05-17T05:19:22.211Z,67.48
2019-05-17T05:20:26.950Z,67.40
2019-05-17T05:21:32.572Z,67.38
2019-05-17T05:22:38.048Z,67.37
2019-05-17T05:23:43.317Z,67.40
2019-05-17T05:24:49.178Z,67.39
2019-05-17T05:25:54.420Z,67.35
2019-05-17T05:27:02.446Z,67.33
2019-05-17T05:28:06.990Z,67.29
2019-05-17T05:29:12.976Z,67.19
2019-05-17T05:30:18.775Z,67.14
2019-05-17T05:31:24.375Z,67.09
2019-05-17T05:32:31.521Z,67.08
2019-05-17T05:33:37.452Z,67.07
2019-05-17T05:34:45.965Z,67.08
2019-05-17T05:35:51.724Z,67.11
2019-05-17T05:36:56.966Z,67.11
2019-05-17T05:38:02.827Z,67.13
2019-05-17T05:39:08.342Z,67.12
2019-05-17T05:40:14.123Z,67.15
2019-05-17T05:41:19.248Z,67.13
2019-05-17T05:42:25.199Z,67.10
2019-05-17T05:43:32.667Z,67.07
2019-05-17T05:44:37.933Z,67.03
2019-05-17T05:45:43.533Z,67.03
2019-05-17T05:46:51.386Z,67.04
2019-05-17T05:47:56.457Z,67.02
2019-05-17T05:49:02.299Z,67.05
2019-05-17T05:50:07.736Z,67.05
2019-05-17T05:51:13.838Z,66.98
2019-05-17T05:52:21.710Z,66.91
2019-05-17T05:53:27.001Z,66.84
2019-05-17T05:54:32.149Z,66.79
2019-05-17T05:55:37.731Z,66.71
2019-05-17T05:56:43.002Z,66.65
2019-05-17T05:57:48.888Z,66.61
2019-05-17T05:58:54.169Z,66.52
2019-05-17T06:00:02.036Z,66.51
2019-05-17T06:01:06.473Z,66.52
2019-05-17T06:02:12.336Z,66.51
2019-05-17T06:03:17.632Z,66.45
2019-05-17T06:04:23.355Z,66.40
2019-05-17T06:05:29.003Z,66.38
2019-05-17T06:06:34.486Z,66.34
2019-05-17T06:07:41.572Z,66.28
2019-05-17T06:08:46.880Z,66.20
2019-05-17T06:09:52.022Z,66.14
2019-05-17T06:10:57.660Z,66.09
2019-05-17T06:12:02.805Z,65.97
2019-05-17T06:13:08.547Z,65.82
2019-05-17T06:14:13.815Z,65.77
2019-05-17T06:15:21.914Z,65.66
2019-05-17T06:16:27.345Z,65.58
2019-05-17T06:17:32.975Z,65.50
2019-05-17T06:18:37.998Z,65.40
2019-05-17T06:19:43.726Z,65.27
2019-05-17T06:20:48.946Z,65.17
2019-05-17T06:21:54.552Z,65.04
2019-05-17T06:22:59.885Z,64.93
2019-05-17T06:24:05.646Z,64.84
2019-05-17T06:25:15.096Z,64.86
2019-05-17T06:26:18.589Z,64.79
2019-05-17T06:27:23.596Z,64.69
2019-05-17T06:28:31.697Z,64.69
2019-05-17T06:29:36.144Z,64.63
2019-05-17T06:30:43.109Z,64.55
2019-05-17T06:31:48.266Z,64.49
2019-05-17T06:32:53.807Z,64.46
2019-05-17T06:33:59.081Z,64.49
2019-05-17T06:35:05.172Z,64.48
2019-05-17T06:36:10.604Z,64.43
2019-05-17T06:37:18.123Z,64.35
2019-05-17T06:38:23.587Z,64.26
2019-05-17T06:39:29.090Z,64.22
2019-05-17T06:40:34.122Z,64.24
2019-05-17T06:41:41.950Z,64.21
2019-05-17T06:42:46.655Z,64.21
2019-05-17T06:43:52.495Z,64.14
2019-05-17T06:44:58.092Z,63.99
2019-05-17T06:46:03.947Z,63.99
2019-05-17T06:47:11.706Z,64.00
2019-05-17T06:48:16.190Z,63.99
2019-05-17T06:49:22.486Z,63.94
2019-05-17T06:50:28.186Z,63.89
2019-05-17T06:51:33.144Z,63.84
2019-05-17T06:52:38.747Z,63.79
2019-05-17T06:53:43.748Z,63.74
2019-05-17T06:54:49.501Z,63.77
2019-05-17T06:55:54.881Z,63.71
2019-05-17T06:57:03.252Z,63.67
2019-05-17T06:58:07.526Z,63.61
2019-05-17T06:59:13.027Z,63.59
2019-05-17T07:00:23.413Z,63.51
2019-05-17T07:01:26.350Z,63.45
2019-05-17T07:02:31.431Z,63.33
2019-05-17T07:03:36.889Z,63.32
2019-05-17T07:04:42.511Z,63.30
2019-05-17T07:05:50.259Z,63.18
2019-05-17T07:07:13.054Z,63.19
2019-05-17T07:08:20.046Z,63.15
2019-05-17T07:09:25.293Z,63.15
2019-05-17T07:10:30.313Z,63.14
2019-05-17T07:11:35.787Z,63.09
2019-05-17T07:12:55.015Z,63.09
2019-05-17T07:13:50.980Z,63.05
2019-05-17T07:14:58.351Z,63.02
2019-05-17T07:16:03.421Z,63.05
2019-05-17T07:17:09.816Z,63.00
2019-05-17T07:18:15.603Z,62.98
2019-05-17T07:19:20.645Z,62.93
2019-05-17T07:20:26.250Z,62.93
2019-05-17T07:21:31.919Z,62.90
2019-05-17T07:22:40.455Z,62.84
2019-05-17T07:23:44.545Z,62.81
2019-05-17T07:24:50.487Z,62.77
2019-05-17T07:25:55.466Z,62.68
2019-05-17T07:27:01.160Z,62.54
2019-05-17T07:28:06.384Z,62.51
2019-05-17T07:29:12.361Z,62.47
2019-05-17T07:30:19.510Z,62.44
2019-05-17T07:31:25.091Z,62.41
2019-05-17T07:32:30.469Z,62.37
2019-05-17T07:33:36.305Z,62.39
2019-05-17T07:34:41.319Z,62.38
2019-05-17T07:35:47.159Z,62.38
2019-05-17T07:36:52.183Z,62.32
2019-05-17T07:37:59.562Z,62.33
2019-05-17T07:39:05.874Z,62.35
2019-05-17T07:40:11.754Z,62.40
2019-05-17T07:41:16.857Z,62.44
2019-05-17T07:42:23.048Z,62.48
2019-05-17T07:43:29.789Z,62.52
2019-05-17T07:44:35.624Z,62.52
2019-05-17T07:45:40.822Z,62.53
2019-05-17T07:46:46.456Z,62.51
2019-05-17T07:47:51.752Z,62.47
2019-05-17T07:49:00.206Z,62.46
2019-05-17T07:50:05.104Z,62.47
2019-05-17T07:51:10.820Z,62.44
2019-05-17T07:52:16.193Z,62.46
2019-05-17T07:53:21.850Z,62.47
2019-05-17T07:54:26.831Z,62.48
2019-05-17T07:55:32.411Z,62.48
2019-05-17T07:56:40.220Z,62.46
2019-05-17T07:57:45.587Z,62.46
2019-05-17T07:58:50.569Z,62.42
2019-05-17T07:59:56.107Z,62.39
2019-05-17T08:01:02.089Z,62.29
2019-05-17T08:02:10.465Z,62.19
2019-05-17T08:03:14.986Z,62.04
2019-05-17T08:04:20.645Z,61.93
2019-05-17T08:05:25.872Z,61.83
2019-05-17T08:06:31.398Z,61.75
2019-05-17T08:07:36.408Z,61.63
2019-05-17T08:08:42.053Z,61.40
2019-05-17T08:09:47.761Z,61.35
2019-05-17T08:10:53.793Z,61.37
2019-05-17T08:11:59.731Z,61.33
2019-05-17T08:13:05.815Z,61.25
2019-05-17T08:14:10.832Z,61.23
2019-05-17T08:15:16.728Z,61.13
2019-05-17T08:16:21.674Z,61.02
2019-05-17T08:17:27.219Z,60.91
2019-05-17T08:18:32.322Z,60.77
2019-05-17T08:19:40.254Z,60.70
2019-05-17T08:20:45.257Z,60.73
2019-05-17T08:21:50.861Z,60.65
2019-05-17T08:22:55.957Z,60.55
2019-05-17T08:24:01.777Z,60.48
2019-05-17T08:25:07.161Z,60.36
2019-05-17T08:26:13.102Z,60.21
2019-05-17T08:27:20.075Z,60.14
2019-05-17T08:28:27.240Z,60.04
2019-05-17T08:29:32.262Z,59.90
2019-05-17T08:30:40.548Z,59.79
2019-05-17T08:31:44.804Z,59.78
2019-05-17T08:32:50.701Z,59.75
2019-05-17T08:33:55.697Z,59.60
2019-05-17T08:35:01.225Z,59.46
2019-05-17T08:36:06.240Z,59.36
2019-05-17T08:37:12.304Z,59.28
2019-05-17T08:38:19.570Z,59.25
2019-05-17T08:39:24.933Z,59.20
2019-05-17T08:40:30.673Z,59.10
2019-05-17T08:41:36.306Z,59.15
2019-05-17T08:42:41.678Z,59.14
2019-05-17T08:43:47.347Z,59.13
2019-05-17T08:44:52.514Z,59.13
2019-05-17T08:46:01.605Z,59.14
2019-05-17T08:47:05.195Z,59.14
2019-05-17T08:48:10.800Z,59.15
2019-05-17T08:49:15.842Z,59.13
2019-05-17T08:50:22.188Z,59.13
2019-05-17T08:51:30.306Z,59.15
2019-05-17T08:52:35.730Z,59.26
2019-05-17T08:53:40.774Z,59.31
2019-05-17T08:54:46.711Z,59.32
2019-05-17T08:55:51.754Z,59.33
2019-05-17T08:56:57.334Z,59.38
2019-05-17T08:58:02.599Z,59.43
2019-05-17T08:59:09.632Z,59.45
2019-05-17T09:00:15.081Z,59.44
2019-05-17T09:01:20.774Z,59.35
2019-05-17T09:02:26.047Z,59.28
2019-05-17T09:03:31.547Z,59.23
2019-05-17T09:04:36.503Z,59.23
2019-05-17T09:05:42.123Z,59.20
2019-05-17T09:06:47.103Z,59.08
2019-05-17T09:07:52.696Z,58.94
2019-05-17T09:08:57.772Z,58.92
2019-05-17T09:10:03.726Z,58.90
2019-05-17T09:11:09.892Z,58.90
2019-05-17T09:12:15.794Z,58.91
2019-05-17T09:13:20.822Z,58.90
2019-05-17T09:14:29.345Z,58.84
2019-05-17T09:15:34.490Z,58.78
2019-05-17T09:16:40.319Z,58.75
2019-05-17T09:17:45.350Z,58.68
2019-05-17T09:18:50.948Z,58.63
2019-05-17T09:19:55.971Z,58.57
2019-05-17T09:21:01.619Z,58.51
2019-05-17T09:22:06.608Z,58.45
2019-05-17T09:23:12.640Z,58.41
2019-05-17T09:24:19.488Z,58.37
2019-05-17T09:25:24.860Z,58.35
2019-05-17T09:26:30.119Z,58.32
2019-05-17T09:27:36.176Z,58.28
2019-05-17T09:28:41.110Z,58.22
2019-05-17T09:29:46.706Z,58.11
2019-05-17T09:30:51.746Z,58.00
2019-05-17T09:31:59.802Z,58.00
2019-05-17T09:33:04.207Z,57.97
2019-05-17T09:34:10.012Z,57.99
2019-05-17T09:35:15.443Z,57.97
2019-05-17T09:36:21.016Z,57.89
2019-05-17T09:37:26.295Z,57.88
2019-05-17T09:38:31.854Z,57.93
2019-05-17T09:39:36.895Z,57.92
2019-05-17T09:40:42.430Z,57.92
2019-05-17T09:41:47.445Z,57.94
2019-05-17T09:42:53.148Z,57.98
2019-05-17T09:44:09.566Z,57.99
2019-05-17T09:45:06.062Z,58.02
2019-05-17T09:46:11.189Z,58.09
2019-05-17T09:47:17.022Z,58.11
2019-05-17T09:48:22.134Z,58.07
2019-05-17T09:49:29.917Z,58.11
2019-05-17T09:50:35.005Z,58.09
2019-05-17T09:51:40.642Z,58.05
2019-05-17T09:52:45.950Z,57.99
2019-05-17T09:53:51.450Z,57.96
2019-05-17T09:54:56.407Z,57.94
2019-05-17T09:56:02.176Z,57.93
2019-05-17T09:57:09.763Z,57.87
2019-05-17T09:58:15.203Z,57.83
2019-05-17T09:59:20.449Z,57.84
2019-05-17T10:00:29.556Z,57.86
2019-05-17T10:01:34.240Z,57.89
2019-05-17T10:02:40.410Z,57.87
2019-05-17T10:03:45.935Z,57.89
2019-05-17T10:04:51.827Z,57.86
2019-05-17T10:05:56.847Z,57.85
2019-05-17T10:07:02.428Z,57.88
2019-05-17T10:08:07.822Z,57.93
2019-05-17T10:09:14.263Z,57.95
2019-05-17T10:10:20.235Z,57.93
2019-05-17T10:11:26.835Z,57.90
2019-05-17T10:12:31.862Z,57.89
2019-05-17T10:13:37.438Z,57.89
2019-05-17T10:14:42.497Z,57.93
2019-05-17T10:15:50.009Z,58.00
2019-05-17T10:16:55.135Z,58.09
2019-05-17T10:18:00.805Z,58.14
2019-05-17T10:19:05.869Z,58.22
2019-05-17T10:20:12.446Z,58.23
2019-05-17T10:21:19.700Z,58.24
2019-05-17T10:22:24.696Z,58.23
2019-05-17T10:23:30.047Z,58.25
2019-05-17T10:24:41.562Z,58.29
2019-05-17T10:25:42.852Z,58.35
2019-05-17T10:26:49.886Z,58.39
2019-05-17T10:27:55.022Z,58.45
2019-05-17T10:29:00.715Z,58.49
2019-05-17T10:30:06.270Z,58.62
2019-05-17T10:31:12.268Z,58.72
2019-05-17T10:32:20.298Z,58.84
2019-05-17T10:33:24.910Z,58.97
2019-05-17T10:34:29.972Z,59.10
2019-05-17T10:35:35.605Z,59.23
2019-05-17T10:36:40.759Z,59.35
2019-05-17T10:37:46.306Z,59.47
2019-05-17T10:38:51.757Z,59.56
2019-05-17T10:39:57.407Z,59.65
2019-05-17T10:41:02.738Z,59.74
2019-05-17T10:42:10.017Z,59.84
2019-05-17T10:43:15.559Z,59.96
2019-05-17T10:44:21.093Z,60.10
2019-05-17T10:45:26.204Z,60.22
2019-05-17T10:46:31.875Z,60.37
2019-05-17T10:47:39.462Z,60.47
2019-05-17T10:48:44.149Z,60.58
2019-05-17T10:49:49.694Z,60.66
2019-05-17T10:50:55.404Z,60.76
2019-05-17T10:52:00.428Z,60.84
2019-05-17T10:53:06.104Z,60.94
2019-05-17T10:54:11.043Z,61.05
2019-05-17T10:55:16.755Z,61.10
2019-05-17T10:56:23.637Z,61.20
2019-05-17T10:57:30.405Z,61.27
2019-05-17T10:59:39.706Z,61.46
2019-05-17T11:00:44.906Z,61.57
2019-05-17T11:01:50.730Z,61.64
2019-05-17T11:02:55.848Z,61.70
2019-05-17T11:04:01.211Z,61.78
2019-05-17T11:05:06.544Z,61.85
2019-05-17T11:06:11.987Z,61.92
2019-05-17T11:07:19.778Z,61.97
2019-05-17T11:08:24.348Z,61.98
2019-05-17T11:09:31.169Z,62.02
2019-05-17T11:10:39.192Z,62.04
2019-05-17T11:11:43.912Z,61.97
2019-05-17T11:12:49.667Z,61.94
2019-05-17T11:13:54.877Z,61.96
2019-05-17T11:15:11.080Z,61.90
2019-05-17T11:16:07.816Z,61.88
2019-05-17T11:17:13.725Z,61.87
2019-05-17T11:18:19.065Z,61.88
2019-05-17T11:19:24.461Z,61.89
2019-05-17T11:20:30.026Z,61.98
2019-05-17T11:21:35.594Z,62.03
2019-05-17T11:22:41.220Z,62.08
2019-05-17T11:23:46.733Z,62.22
2019-05-17T11:24:52.147Z,62.38
2019-05-17T11:25:57.850Z,62.51
2019-05-17T11:27:03.113Z,62.59
2019-05-17T11:28:08.649Z,62.70
2019-05-17T11:29:13.962Z,62.90
2019-05-17T11:30:19.654Z,63.05
2019-05-17T11:31:24.864Z,63.10
2019-05-17T11:32:30.532Z,63.13
2019-05-17T11:33:36.352Z,63.16
2019-05-17T11:34:41.716Z,63.32
2019-05-17T11:35:46.828Z,63.49
2019-05-17T11:36:52.463Z,63.56
2019-05-17T11:37:58.095Z,63.56
2019-05-17T11:39:03.997Z,63.67
2019-05-17T11:40:09.683Z,63.81
2019-05-17T11:41:21.122Z,63.91
2019-05-17T11:42:22.150Z,63.99
2019-05-17T11:43:27.587Z,64.07
2019-05-17T11:44:32.755Z,64.15
2019-05-17T11:45:38.180Z,64.31
2019-05-17T11:46:43.661Z,64.46
2019-05-17T11:47:49.114Z,64.59
2019-05-17T11:48:54.300Z,64.69
2019-05-17T11:49:59.625Z,64.79
2019-05-17T11:51:04.935Z,64.83
2019-05-17T11:52:10.602Z,64.86
2019-05-17T11:53:16.171Z,64.92
2019-05-17T11:54:21.879Z,64.94
2019-05-17T11:55:27.154Z,64.92
2019-05-17T11:56:32.644Z,64.99
2019-05-17T11:57:38.049Z,65.04
2019-05-17T11:58:43.502Z,65.08
2019-05-17T11:59:48.669Z,65.09
2019-05-17T12:00:54.100Z,65.07
2019-05-17T12:01:59.336Z,65.09
2019-05-17T12:03:04.786Z,65.12
2019-05-17T12:04:10.004Z,65.11
2019-05-17T12:05:15.891Z,65.11
2019-05-17T12:06:21.225Z,65.15
2019-05-17T12:07:27.050Z,65.18
2019-05-17T12:08:32.474Z,65.24
2019-05-17T12:09:38.509Z,65.40
2019-05-17T12:10:43.979Z,65.39
2019-05-17T12:11:49.568Z,65.44
2019-05-17T12:12:55.141Z,65.41
2019-05-17T12:14:00.482Z,65.47
2019-05-17T12:15:06.495Z,65.59
2019-05-17T12:16:11.946Z,65.64
2019-05-17T12:17:17.346Z,65.78
2019-05-17T12:18:22.709Z,65.90
2019-05-17T12:19:27.904Z,65.91
2019-05-17T12:20:33.598Z,65.99
2019-05-17T12:21:39.052Z,66.17
2019-05-17T12:22:44.788Z,66.31
2019-05-17T12:23:50.284Z,66.45
2019-05-17T12:24:55.790Z,66.54
2019-05-17T12:26:00.993Z,66.72
2019-05-17T12:27:06.435Z,66.83
2019-05-17T12:28:11.659Z,66.98
2019-05-17T12:29:17.183Z,67.06
2019-05-17T12:30:22.477Z,67.27
2019-05-17T12:31:27.939Z,67.39
2019-05-17T12:32:33.488Z,67.40
2019-05-17T12:33:38.960Z,67.45
2019-05-17T12:34:44.308Z,67.55
2019-05-17T12:35:49.648Z,67.66
2019-05-17T12:36:54.852Z,67.70
2019-05-17T12:38:00.157Z,67.73
2019-05-17T12:39:07.229Z,67.68
2019-05-17T12:40:13.122Z,67.64
2019-05-17T12:41:18.305Z,67.62
2019-05-17T12:42:23.713Z,67.56
2019-05-17T12:43:29.024Z,67.63
2019-05-17T12:44:37.198Z,67.68
2019-05-17T12:45:41.380Z,67.71
2019-05-17T12:46:46.907Z,67.79
2019-05-17T12:47:52.045Z,67.88
2019-05-17T12:48:57.370Z,67.98
2019-05-17T12:50:02.808Z,68.07
2019-05-17T12:51:08.248Z,68.09
2019-05-17T12:52:13.422Z,68.09
2019-05-17T12:53:18.819Z,68.05
2019-05-17T12:54:24.504Z,67.99
2019-05-17T12:55:29.964Z,67.94
2019-05-17T12:56:35.035Z,67.91
2019-05-17T12:57:40.506Z,67.97
2019-05-17T12:58:46.238Z,67.96
2019-05-17T12:59:51.622Z,67.91
2019-05-17T13:00:57.086Z,67.83
2019-05-17T13:02:02.806Z,67.80
2019-05-17T13:03:08.084Z,67.80
2019-05-17T13:04:14.115Z,67.85
2019-05-17T13:05:19.412Z,67.95
2019-05-17T13:06:25.067Z,68.03
2019-05-17T13:07:30.161Z,68.15
2019-05-17T13:08:36.102Z,68.28
2019-05-17T13:09:41.401Z,68.39
2019-05-17T13:10:46.861Z,68.40
2019-05-17T13:11:52.162Z,68.43
2019-05-17T13:12:58.147Z,68.51
2019-05-17T13:14:03.453Z,68.55
2019-05-17T13:15:10.030Z,68.57
2019-05-17T13:16:18.927Z,68.66
2019-05-17T13:17:22.692Z,68.75
2019-05-17T13:18:28.135Z,68.83
2019-05-17T13:19:33.551Z,68.92
2019-05-17T13:20:39.024Z,69.04
2019-05-17T13:21:44.370Z,69.20
2019-05-17T13:22:50.199Z,69.27
2019-05-17T13:23:55.522Z,69.41
2019-05-17T13:25:00.664Z,69.48
2019-05-17T13:26:06.119Z,69.53
2019-05-17T13:27:11.291Z,69.55
2019-05-17T13:28:16.612Z,69.48
2019-05-17T13:29:21.798Z,69.48
2019-05-17T13:30:27.179Z,69.50
2019-05-17T13:31:32.397Z,69.49
2019-05-17T13:32:37.839Z,69.47
2019-05-17T13:33:43.626Z,69.50
2019-05-17T13:34:48.987Z,69.50
2019-05-17T13:35:54.092Z,69.56
2019-05-17T13:36:59.811Z,69.60
2019-05-17T13:38:05.095Z,69.67
2019-05-17T13:39:10.554Z,69.74
2019-05-17T13:40:16.101Z,69.84
2019-05-17T13:41:21.393Z,69.89
2019-05-17T13:42:27.984Z,69.83
2019-05-17T13:43:33.486Z,69.78
2019-05-17T13:44:39.045Z,69.76
2019-05-17T13:45:45.135Z,69.76
2019-05-17T13:46:52.333Z,69.74
2019-05-17T13:47:57.677Z,69.72
2019-05-17T13:49:02.824Z,69.71
2019-05-17T13:50:09.080Z,69.59
2019-05-17T13:51:14.245Z,69.50
2019-05-17T13:52:19.569Z,69.37
2019-05-17T13:53:24.984Z,69.26
2019-05-17T13:54:30.581Z,69.19
2019-05-17T13:55:35.751Z,69.13
2019-05-17T13:56:41.891Z,69.10
2019-05-17T13:57:47.075Z,69.07
2019-05-17T13:58:52.643Z,69.03
2019-05-17T13:59:57.812Z,68.89
2019-05-17T14:01:03.473Z,68.76
2019-05-17T14:02:08.648Z,68.62
2019-05-17T14:03:13.974Z,68.48
2019-05-17T14:04:19.177Z,68.29
2019-05-17T14:05:24.800Z,68.08
2019-05-17T14:06:30.055Z,67.99
2019-05-17T14:07:35.397Z,67.99
2019-05-17T14:08:40.689Z,67.96
2019-05-17T14:09:46.348Z,67.97
2019-05-17T14:10:51.617Z,67.93
2019-05-17T14:11:57.282Z,67.83